sensor_id;sensor_type;location;lat;lon;timestamp;pressure;altitude;pressure_sealevel;temperature;humidity
26178;BME280;13924;47.670;10.310;2023-07-30T00:00:38;93720;;;16.9;100.0
26178;BME280;13924;47.670;10.310;2023-07-30T00:15:39;93730;;;16.9;100.0
26178;BME280;13924;47.670;10.310;2023-07-30T00:30:39;93550;;;17.2;100.0
26178;BME280;13924;47.670;10.310;2023-07-30T00:45:44;93660;;;17.0;100.0
26178;BME280;13924;47.670;10.310;2023-07-30T01:00:41;93770;;;16.8;100.0
26178;BME280;13924;47.670;10.310;2023-07-30T01:01:26;93780;;;16.7;100.0
26178;BME280;13924;47.670;10.310;2023-07-30T01:15:42;93790;;;16.7;100.0
26178;BME280;13924;47.670;10.310;2023-07-30T01:30:45;93700;;;16.9;100.0
26178;BME280;13924;47.670;10.310;2023-07-30T01:45:42;93740;;;16.8;100.0
26178;BME280;13924;47.670;10.310;2023-07-30T02:00:44;93760;;;16.7;100.0
26178;BME280;13924;47.670;10.310;2023-07-30T02:15:45;93680;;;16.8;100.0
26178;BME280;13924;47.670;10.310;2023-07-30T02:30:45;93560;;;17.1;100.0
26178;BME280;13924;47.670;10.310;2023-07-30T02:45:47;93460;;;17.4;100.0
26178;BME280;13924;47.670;10.310;2023-07-30T03:00:46;93560;;;17.1;100.0
26178;BME280;13924;47.670;10.310;2023-07-30T03:15:46;93580;;;17.1;100.0
26178;BME280;13924;47.670;10.310;2023-07-30T03:30:47;93720;;;16.9;100.0
26178;BME280;13924;47.670;10.310;2023-07-30T03:45:49;93750;;;16.8;100.0
26178;BME280;13924;47.670;10.310;2023-07-30T03:47:00;93750;;;16.8;100.0
26178;BME280;13924;47.670;10.310;2023-07-30T04:02:00;93820;;;16.7;100.0
26178;BME280;13924;47.670;10.310;2023-07-30T04:17:01;93860;;;16.6;100.0
26178;BME280;13924;47.670;10.310;2023-07-30T04:32:02;93890;;;16.6;100.0
26178;BME280;13924;47.670;10.310;2023-07-30T04:47:02;93790;;;16.9;100.0
26178;BME280;13924;47.670;10.310;2023-07-30T05:02:04;93730;;;17.1;100.0
26178;BME280;13924;47.670;10.310;2023-07-30T05:17:06;93730;;;17.1;100.0
26178;BME280;13924;47.670;10.310;2023-07-30T05:32:06;93790;;;17.3;100.0
26178;BME280;13924;47.670;10.310;2023-07-30T05:47:06;93680;;;17.7;100.0
26178;BME280;13924;47.670;10.310;2023-07-30T06:02:06;93560;;;18.1;100.0
26178;BME280;13924;47.670;10.310;2023-07-30T06:17:06;93540;;;18.2;100.0
26178;BME280;13924;47.670;10.310;2023-07-30T06:32:07;93430;;;18.5;100.0
26178;BME280;13924;47.670;10.310;2023-07-30T06:47:07;93400;;;18.5;100.0
26178;BME280;13924;47.670;10.310;2023-07-30T07:02:08;93390;;;18.6;100.0
26178;BME280;13924;47.670;10.310;2023-07-30T07:17:09;93400;;;18.6;100.0
26178;BME280;13924;47.670;10.310;2023-07-30T07:32:10;93380;;;19.0;100.0
26178;BME280;13924;47.670;10.310;2023-07-30T07:47:11;93390;;;18.9;100.0
26178;BME280;13924;47.670;10.310;2023-07-30T08:02:11;93350;;;19.0;100.0
26178;BME280;13924;47.670;10.310;2023-07-30T08:17:11;93340;;;19.5;100.0
26178;BME280;13924;47.670;10.310;2023-07-30T08:32:12;93330;;;19.0;100.0
26178;BME280;13924;47.670;10.310;2023-07-30T08:47:13;93310;;;19.4;100.0
26178;BME280;13924;47.670;10.310;2023-07-30T09:02:20;93290;;;19.4;100.0
26178;BME280;13924;47.670;10.310;2023-07-30T09:17:17;93320;;;19.6;100.0
26178;BME280;13924;47.670;10.310;2023-07-30T09:32:15;93320;;;19.7;100.0
26178;BME280;13924;47.670;10.310;2023-07-30T09:47:16;93300;;;20.2;100.0
26178;BME280;13924;47.670;10.310;2023-07-30T10:02:18;93280;;;20.4;100.0
26178;BME280;13924;47.670;10.310;2023-07-30T10:17:17;93310;;;19.7;100.0
26178;BME280;13924;47.670;10.310;2023-07-30T10:32:20;93310;;;19.7;100.0
26178;BME280;13924;47.670;10.310;2023-07-30T10:47:19;93280;;;20.0;100.0
26178;BME280;13924;47.670;10.310;2023-07-30T11:02:19;93250;;;20.6;100.0
26178;BME280;13924;47.670;10.310;2023-07-30T11:32:21;93290;;;20.2;100.0
26178;BME280;13924;47.670;10.310;2023-07-30T11:47:22;93300;;;19.8;100.0
26178;BME280;13924;47.670;10.310;2023-07-30T12:02:21;93310;;;20.2;100.0
26178;BME280;13924;47.670;10.310;2023-07-30T12:17:23;93310;;;20.2;100.0
26178;BME280;13924;47.670;10.310;2023-07-30T12:32:23;93320;;;20.0;100.0
26178;BME280;13924;47.670;10.310;2023-07-30T12:47:23;93320;;;20.3;100.0
26178;BME280;13924;47.670;10.310;2023-07-30T13:02:26;93320;;;20.3;100.0
26178;BME280;13924;47.670;10.310;2023-07-30T13:17:26;93310;;;20.5;100.0
26178;BME280;13924;47.670;10.310;2023-07-30T13:32:25;93310;;;20.9;100.0
26178;BME280;13924;47.670;10.310;2023-07-30T13:47:26;93290;;;21.0;100.0
26178;BME280;13924;47.670;10.310;2023-07-30T14:02:27;93300;;;20.9;100.0
26178;BME280;13924;47.670;10.310;2023-07-30T14:17:27;93290;;;21.9;100.0
26178;BME280;13924;47.670;10.310;2023-07-30T14:32:28;93310;;;22.1;100.0
26178;BME280;13924;47.670;10.310;2023-07-30T14:47:29;93310;;;21.8;100.0
26178;BME280;13924;47.670;10.310;2023-07-30T15:02:29;93300;;;22.1;100.0
26178;BME280;13924;47.670;10.310;2023-07-30T15:17:30;93310;;;22.7;100.0
26178;BME280;13924;47.670;10.310;2023-07-30T15:32:31;93320;;;22.5;100.0
26178;BME280;13924;47.670;10.310;2023-07-30T15:47:31;93310;;;22.3;100.0
26178;BME280;13924;47.670;10.310;2023-07-30T16:02:32;93310;;;22.2;100.0
26178;BME280;13924;47.670;10.310;2023-07-30T16:17:32;93310;;;22.1;100.0
26178;BME280;13924;47.670;10.310;2023-07-30T16:32:33;93310;;;22.4;100.0
26178;BME280;13924;47.670;10.310;2023-07-30T16:47:34;93300;;;22.1;100.0
26178;BME280;13924;47.670;10.310;2023-07-30T17:02:35;93310;;;21.7;100.0
26178;BME280;13924;47.670;10.310;2023-07-30T17:17:36;93310;;;21.7;100.0
26178;BME280;13924;47.670;10.310;2023-07-30T17:32:37;93340;;;20.6;100.0
26178;BME280;13924;47.670;10.310;2023-07-30T17:47:37;93350;;;20.5;100.0
26178;BME280;13924;47.670;10.310;2023-07-30T18:02:37;93350;;;20.4;100.0
26178;BME280;13924;47.670;10.310;2023-07-30T18:17:38;93370;;;20.2;100.0
26178;BME280;13924;47.670;10.310;2023-07-30T18:32:38;93370;;;19.9;100.0
26178;BME280;13924;47.670;10.310;2023-07-30T18:47:40;93380;;;19.6;100.0
26178;BME280;13924;47.670;10.310;2023-07-30T19:02:39;93400;;;19.3;100.0
26178;BME280;13924;47.670;10.310;2023-07-30T19:17:41;93420;;;19.1;100.0
26178;BME280;13924;47.670;10.310;2023-07-30T19:32:42;93430;;;19.0;100.0
26178;BME280;13924;47.670;10.310;2023-07-30T19:47:44;93460;;;19.0;100.0
26178;BME280;13924;47.670;10.310;2023-07-30T20:02:43;93460;;;18.3;100.0
26178;BME280;13924;47.670;10.310;2023-07-30T20:17:43;93470;;;18.1;100.0
26178;BME280;13924;47.670;10.310;2023-07-30T20:32:45;93470;;;17.7;100.0
26178;BME280;13924;47.670;10.310;2023-07-30T20:47:46;93470;;;17.7;100.0
26178;BME280;13924;47.670;10.310;2023-07-30T21:02:45;93510;;;17.2;100.0
26178;BME280;13924;47.670;10.310;2023-07-30T21:17:52;93510;;;17.2;100.0
26178;BME280;13924;47.670;10.310;2023-07-30T21:32:47;93510;;;17.9;100.0
26178;BME280;13924;47.670;10.310;2023-07-30T21:47:46;93500;;;18.3;100.0
26178;BME280;13924;47.670;10.310;2023-07-30T22:00:34;93520;;;17.3;100.0
26178;BME280;13924;47.670;10.310;2023-07-30T22:15:33;93490;;;17.9;100.0
26178;BME280;13924;47.670;10.310;2023-07-30T22:30:34;93510;;;17.2;100.0
26178;BME280;13924;47.670;10.310;2023-07-30T22:45:36;93510;;;17.2;100.0
26178;BME280;13924;47.670;10.310;2023-07-30T23:00:36;93530;;;16.1;100.0
26178;BME280;13924;47.670;10.310;2023-07-30T23:15:37;93530;;;15.8;100.0
26178;BME280;13924;47.670;10.310;2023-07-30T23:30:38;93570;;;15.5;100.0
26178;BME280;13924;47.670;10.310;2023-07-30T23:45:49;93570;;;15.5;100.0
